sensor_id;sensor_type;location;lat;lon;timestamp;pressure;altitude;pressure_sealevel;temperature;humidity
39954;BME280;25631;51.516;-0.470;2023-03-14T00:00:10;98438.94;;;8.15;46.78
39954;BME280;25631;51.516;-0.470;2023-03-14T00:02:52;98434.32;;;8.06;46.61
39954;BME280;25631;51.516;-0.470;2023-03-14T00:05:28;98438.98;;;7.94;47.12
39954;BME280;25631;51.516;-0.470;2023-03-14T00:08:05;98438.98;;;8.15;47.13
39954;BME280;25631;51.516;-0.470;2023-03-14T00:10:42;98441.82;;;8.01;47.20
39954;BME280;25631;51.516;-0.470;2023-03-14T00:13:18;98447.43;;;8.18;46.98
39954;BME280;25631;51.516;-0.470;2023-03-14T00:15:55;98446.89;;;8.15;46.91
39954;BME280;25631;51.516;-0.470;2023-03-14T00:18:37;98450.20;;;8.22;46.97
39954;BME280;25631;51.516;-0.470;2023-03-14T00:21:14;98445.01;;;8.06;47.23
39954;BME280;25631;51.516;-0.470;2023-03-14T00:23:51;98445.96;;;8.06;47.34
39954;BME280;25631;51.516;-0.470;2023-03-14T00:26:28;98449.97;;;8.25;47.40
39954;BME280;25631;51.516;-0.470;2023-03-14T00:29:04;98450.57;;;7.76;48.02
39954;BME280;25631;51.516;-0.470;2023-03-14T00:31:41;98452.09;;;7.53;48.54
39954;BME280;25631;51.516;-0.470;2023-03-14T00:34:17;98457.66;;;7.59;48.89
39954;BME280;25631;51.516;-0.470;2023-03-14T00:36:54;98462.13;;;7.88;48.62
39954;BME280;25631;51.516;-0.470;2023-03-14T00:39:30;98469.39;;;7.78;48.63
39954;BME280;25631;51.516;-0.470;2023-03-14T00:42:07;98475.51;;;7.91;48.38
39954;BME280;25631;51.516;-0.470;2023-03-14T00:44:43;98479.55;;;8.01;48.29
39954;BME280;25631;51.516;-0.470;2023-03-14T00:47:19;98488.52;;;8.10;48.46
39954;BME280;25631;51.516;-0.470;2023-03-14T00:49:56;98555.39;;;8.30;48.36
39954;BME280;25631;51.516;-0.470;2023-03-14T00:52:32;98593.26;;;7.77;46.99
39954;BME280;25631;51.516;-0.470;2023-03-14T00:55:09;98595.20;;;7.58;46.33
39954;BME280;25631;51.516;-0.470;2023-03-14T00:57:45;98604.61;;;7.27;45.84
39954;BME280;25631;51.516;-0.470;2023-03-14T01:00:22;98604.89;;;6.84;45.63
39954;BME280;25631;51.516;-0.470;2023-03-14T01:02:59;98624.64;;;6.46;45.94
39954;BME280;25631;51.516;-0.470;2023-03-14T01:05:37;98631.56;;;6.57;45.51
39954;BME280;25631;51.516;-0.470;2023-03-14T01:08:13;98636.91;;;6.13;45.60
39954;BME280;25631;51.516;-0.470;2023-03-14T01:10:49;98647.23;;;5.96;45.46
39954;BME280;25631;51.516;-0.470;2023-03-14T01:13:26;98657.02;;;5.94;45.77
39954;BME280;25631;51.516;-0.470;2023-03-14T01:16:04;98663.98;;;5.25;45.43
39954;BME280;25631;51.516;-0.470;2023-03-14T01:18:43;98668.30;;;5.10;45.82
39954;BME280;25631;51.516;-0.470;2023-03-14T01:21:21;98684.24;;;5.42;45.70
39954;BME280;25631;51.516;-0.470;2023-03-14T01:24:00;98694.65;;;5.57;45.56
39954;BME280;25631;51.516;-0.470;2023-03-14T01:26:37;98705.21;;;5.54;45.36
39954;BME280;25631;51.516;-0.470;2023-03-14T01:29:13;98723.55;;;5.22;45.23
39954;BME280;25631;51.516;-0.470;2023-03-14T01:31:50;98730.84;;;5.30;45.27
39954;BME280;25631;51.516;-0.470;2023-03-14T01:34:26;98738.71;;;5.54;45.30
39954;BME280;25631;51.516;-0.470;2023-03-14T01:37:03;98741.35;;;5.31;45.12
39954;BME280;25631;51.516;-0.470;2023-03-14T01:39:39;98756.85;;;5.65;44.96
39954;BME280;25631;51.516;-0.470;2023-03-14T01:42:16;98760.95;;;5.70;44.91
39954;BME280;25631;51.516;-0.470;2023-03-14T01:44:54;98767.59;;;5.81;44.84
39954;BME280;25631;51.516;-0.470;2023-03-14T01:47:31;98780.79;;;5.77;44.71
39954;BME280;25631;51.516;-0.470;2023-03-14T01:50:10;98789.13;;;5.86;44.52
39954;BME280;25631;51.516;-0.470;2023-03-14T01:52:50;98797.97;;;5.74;44.30
39954;BME280;25631;51.516;-0.470;2023-03-14T01:55:27;98804.81;;;6.00;44.30
39954;BME280;25631;51.516;-0.470;2023-03-14T01:58:04;98814.19;;;5.94;44.10
39954;BME280;25631;51.516;-0.470;2023-03-14T02:00:41;98820.30;;;5.59;43.52
39954;BME280;25631;51.516;-0.470;2023-03-14T02:03:20;98822.43;;;5.44;42.93
39954;BME280;25631;51.516;-0.470;2023-03-14T02:06:00;98844.49;;;4.94;41.98
39954;BME280;25631;51.516;-0.470;2023-03-14T02:08:40;98853.42;;;4.91;41.42
39954;BME280;25631;51.516;-0.470;2023-03-14T02:11:18;98856.77;;;4.98;41.01
39954;BME280;25631;51.516;-0.470;2023-03-14T02:13:55;98869.83;;;5.39;40.94
39954;BME280;25631;51.516;-0.470;2023-03-14T02:16:34;98859.62;;;4.60;41.33
39954;BME280;25631;51.516;-0.470;2023-03-14T02:19:12;98858.60;;;4.97;41.15
39954;BME280;25631;51.516;-0.470;2023-03-14T02:21:55;98854.58;;;5.28;41.41
39954;BME280;25631;51.516;-0.470;2023-03-14T02:24:40;98873.53;;;4.85;40.38
39954;BME280;25631;51.516;-0.470;2023-03-14T02:27:20;98878.38;;;5.08;40.36
39954;BME280;25631;51.516;-0.470;2023-03-14T02:29:59;98891.42;;;5.20;39.90
39954;BME280;25631;51.516;-0.470;2023-03-14T02:32:39;98896.64;;;5.47;39.77
39954;BME280;25631;51.516;-0.470;2023-03-14T02:35:19;98909.37;;;5.28;39.48
39954;BME280;25631;51.516;-0.470;2023-03-14T02:38:00;98908.78;;;4.84;39.04
39954;BME280;25631;51.516;-0.470;2023-03-14T02:40:38;98924.33;;;4.96;38.64
39954;BME280;25631;51.516;-0.470;2023-03-14T02:43:15;98924.45;;;4.84;38.57
39954;BME280;25631;51.516;-0.470;2023-03-14T02:45:52;98930.55;;;5.07;38.59
39954;BME280;25631;51.516;-0.470;2023-03-14T02:48:33;98941.30;;;4.98;38.82
39954;BME280;25631;51.516;-0.470;2023-03-14T02:51:10;98946.90;;;5.11;39.03
39954;BME280;25631;51.516;-0.470;2023-03-14T02:53:48;98945.26;;;5.25;39.15
39954;BME280;25631;51.516;-0.470;2023-03-14T02:56:24;98949.46;;;4.90;39.29
39954;BME280;25631;51.516;-0.470;2023-03-14T02:59:03;98956.68;;;4.95;39.41
39954;BME280;25631;51.516;-0.470;2023-03-14T03:01:39;98965.16;;;4.69;39.44
39954;BME280;25631;51.516;-0.470;2023-03-14T03:04:16;98967.64;;;5.20;39.49
39954;BME280;25631;51.516;-0.470;2023-03-14T03:06:52;98978.91;;;5.10;39.56
39954;BME280;25631;51.516;-0.470;2023-03-14T03:09:29;98985.56;;;5.00;39.54
39954;BME280;25631;51.516;-0.470;2023-03-14T03:12:05;98992.03;;;4.75;39.54
39954;BME280;25631;51.516;-0.470;2023-03-14T03:14:42;99002.15;;;5.06;39.50
39954;BME280;25631;51.516;-0.470;2023-03-14T03:17:18;99016.98;;;4.85;39.33
39954;BME280;25631;51.516;-0.470;2023-03-14T03:19:55;99013.57;;;4.81;39.37
39954;BME280;25631;51.516;-0.470;2023-03-14T03:22:31;99021.27;;;4.79;39.22
39954;BME280;25631;51.516;-0.470;2023-03-14T03:25:09;99030.14;;;4.57;39.34
39954;BME280;25631;51.516;-0.470;2023-03-14T03:27:46;99036.89;;;4.48;39.50
39954;BME280;25631;51.516;-0.470;2023-03-14T03:30:23;99033.99;;;4.36;39.10
39954;BME280;25631;51.516;-0.470;2023-03-14T03:32:59;99039.86;;;4.21;38.51
39954;BME280;25631;51.516;-0.470;2023-03-14T03:35:42;99053.69;;;4.04;38.20
39954;BME280;25631;51.516;-0.470;2023-03-14T03:38:18;99054.54;;;3.98;37.99
39954;BME280;25631;51.516;-0.470;2023-03-14T03:40:55;99060.43;;;4.51;37.58
39954;BME280;25631;51.516;-0.470;2023-03-14T03:43:32;99067.45;;;4.20;36.88
39954;BME280;25631;51.516;-0.470;2023-03-14T03:46:08;99084.00;;;3.60;36.25
39954;BME280;25631;51.516;-0.470;2023-03-14T03:48:45;99080.53;;;3.61;36.37
39954;BME280;25631;51.516;-0.470;2023-03-14T03:51:22;99093.91;;;4.00;35.97
39954;BME280;25631;51.516;-0.470;2023-03-14T03:53:58;99111.18;;;3.56;36.08
39954;BME280;25631;51.516;-0.470;2023-03-14T03:56:35;99121.53;;;3.55;36.18
39954;BME280;25631;51.516;-0.470;2023-03-14T03:59:11;99119.75;;;3.99;36.35
39954;BME280;25631;51.516;-0.470;2023-03-14T04:01:48;99127.22;;;3.98;36.41
39954;BME280;25631;51.516;-0.470;2023-03-14T04:04:25;99137.90;;;3.85;36.62
39954;BME280;25631;51.516;-0.470;2023-03-14T04:07:01;99152.13;;;3.79;36.74
39954;BME280;25631;51.516;-0.470;2023-03-14T04:09:37;99151.69;;;3.75;36.67
39954;BME280;25631;51.516;-0.470;2023-03-14T04:12:14;99153.62;;;3.83;36.77
39954;BME280;25631;51.516;-0.470;2023-03-14T04:14:50;99156.14;;;3.72;36.75
39954;BME280;25631;51.516;-0.470;2023-03-14T04:17:27;99166.47;;;3.57;36.82
39954;BME280;25631;51.516;-0.470;2023-03-14T04:20:04;99177.12;;;3.94;36.79
39954;BME280;25631;51.516;-0.470;2023-03-14T04:22:41;99188.27;;;3.79;36.96
39954;BME280;25631;51.516;-0.470;2023-03-14T04:25:17;99190.34;;;3.37;36.71
39954;BME280;25631;51.516;-0.470;2023-03-14T04:27:54;99194.75;;;3.55;36.74
39954;BME280;25631;51.516;-0.470;2023-03-14T04:30:30;99205.75;;;3.59;36.67
39954;BME280;25631;51.516;-0.470;2023-03-14T04:33:07;99210.03;;;3.78;36.83
39954;BME280;25631;51.516;-0.470;2023-03-14T04:35:43;99216.30;;;3.20;37.04
39954;BME280;25631;51.516;-0.470;2023-03-14T04:38:20;99221.27;;;3.05;36.97
39954;BME280;25631;51.516;-0.470;2023-03-14T04:40:56;99227.04;;;3.45;36.71
39954;BME280;25631;51.516;-0.470;2023-03-14T04:43:33;99232.37;;;3.28;36.85
39954;BME280;25631;51.516;-0.470;2023-03-14T04:46:10;99241.31;;;2.98;36.61
39954;BME280;25631;51.516;-0.470;2023-03-14T04:48:46;99250.27;;;3.02;37.15
39954;BME280;25631;51.516;-0.470;2023-03-14T04:51:23;99255.94;;;3.18;36.76
39954;BME280;25631;51.516;-0.470;2023-03-14T04:53:59;99262.67;;;3.27;36.91
39954;BME280;25631;51.516;-0.470;2023-03-14T04:56:36;99271.66;;;2.99;36.59
39954;BME280;25631;51.516;-0.470;2023-03-14T04:59:12;99275.98;;;3.26;36.30
39954;BME280;25631;51.516;-0.470;2023-03-14T05:01:49;99283.48;;;3.23;36.25
39954;BME280;25631;51.516;-0.470;2023-03-14T05:04:25;99284.70;;;3.14;36.06
39954;BME280;25631;51.516;-0.470;2023-03-14T05:07:02;99297.91;;;3.08;36.18
39954;BME280;25631;51.516;-0.470;2023-03-14T05:09:38;99294.77;;;3.20;35.98
39954;BME280;25631;51.516;-0.470;2023-03-14T05:12:16;99299.48;;;3.35;35.98
39954;BME280;25631;51.516;-0.470;2023-03-14T05:14:52;99302.82;;;3.35;35.92
39954;BME280;25631;51.516;-0.470;2023-03-14T05:17:28;99310.01;;;3.11;35.57
39954;BME280;25631;51.516;-0.470;2023-03-14T05:20:06;99314.30;;;3.25;35.29
39954;BME280;25631;51.516;-0.470;2023-03-14T05:22:42;99315.37;;;3.10;35.07
39954;BME280;25631;51.516;-0.470;2023-03-14T05:25:19;99319.65;;;2.87;35.24
39954;BME280;25631;51.516;-0.470;2023-03-14T05:27:55;99324.16;;;3.22;35.29
39954;BME280;25631;51.516;-0.470;2023-03-14T05:30:32;99332.30;;;3.11;35.50
39954;BME280;25631;51.516;-0.470;2023-03-14T05:33:08;99337.29;;;3.00;35.56
39954;BME280;25631;51.516;-0.470;2023-03-14T05:35:45;99343.78;;;3.14;35.53
39954;BME280;25631;51.516;-0.470;2023-03-14T05:38:22;99348.92;;;2.98;35.62
39954;BME280;25631;51.516;-0.470;2023-03-14T05:40:58;99351.33;;;2.77;35.68
39954;BME280;25631;51.516;-0.470;2023-03-14T05:43:34;99362.55;;;2.62;35.72
39954;BME280;25631;51.516;-0.470;2023-03-14T05:46:11;99368.50;;;2.68;35.88
39954;BME280;25631;51.516;-0.470;2023-03-14T05:48:47;99372.92;;;2.69;35.91
39954;BME280;25631;51.516;-0.470;2023-03-14T05:51:24;99387.28;;;2.73;35.76
39954;BME280;25631;51.516;-0.470;2023-03-14T05:54:01;99385.20;;;2.70;36.21
39954;BME280;25631;51.516;-0.470;2023-03-14T05:56:37;99388.46;;;2.80;36.08
39954;BME280;25631;51.516;-0.470;2023-03-14T05:59:14;99398.47;;;2.94;36.08
39954;BME280;25631;51.516;-0.470;2023-03-14T06:01:50;99402.18;;;3.18;36.28
39954;BME280;25631;51.516;-0.470;2023-03-14T06:04:27;99407.40;;;2.93;36.56
39954;BME280;25631;51.516;-0.470;2023-03-14T06:07:03;99416.84;;;3.25;36.40
39954;BME280;25631;51.516;-0.470;2023-03-14T06:09:40;99425.91;;;3.28;36.38
39954;BME280;25631;51.516;-0.470;2023-03-14T06:12:17;99428.66;;;2.95;36.60
39954;BME280;25631;51.516;-0.470;2023-03-14T06:14:53;99430.76;;;3.16;36.67
39954;BME280;25631;51.516;-0.470;2023-03-14T06:17:30;99428.43;;;2.94;36.50
39954;BME280;25631;51.516;-0.470;2023-03-14T06:20:08;99444.01;;;3.46;36.63
39954;BME280;25631;51.516;-0.470;2023-03-14T06:22:44;99453.38;;;3.18;36.48
39954;BME280;25631;51.516;-0.470;2023-03-14T06:25:21;99457.53;;;2.76;36.62
39954;BME280;25631;51.516;-0.470;2023-03-14T06:27:57;99462.75;;;3.20;36.45
39954;BME280;25631;51.516;-0.470;2023-03-14T06:30:34;99474.35;;;3.33;36.41
39954;BME280;25631;51.516;-0.470;2023-03-14T06:33:10;99479.87;;;3.13;36.23
39954;BME280;25631;51.516;-0.470;2023-03-14T06:35:47;99485.58;;;3.26;36.35
39954;BME280;25631;51.516;-0.470;2023-03-14T06:38:23;99491.01;;;3.25;36.28
39954;BME280;25631;51.516;-0.470;2023-03-14T06:41:04;99493.80;;;3.42;36.12
39954;BME280;25631;51.516;-0.470;2023-03-14T06:43:40;99485.82;;;2.79;36.14
39954;BME280;25631;51.516;-0.470;2023-03-14T06:46:17;99498.04;;;3.07;36.24
39954;BME280;25631;51.516;-0.470;2023-03-14T06:48:53;99506.21;;;3.36;36.14
39954;BME280;25631;51.516;-0.470;2023-03-14T06:51:30;99524.12;;;2.56;36.52
39954;BME280;25631;51.516;-0.470;2023-03-14T06:54:06;99534.31;;;3.05;36.26
39954;BME280;25631;51.516;-0.470;2023-03-14T06:56:43;99537.77;;;2.99;36.31
39954;BME280;25631;51.516;-0.470;2023-03-14T06:59:19;99550.73;;;2.84;36.41
39954;BME280;25631;51.516;-0.470;2023-03-14T07:01:56;99560.95;;;2.90;36.66
39954;BME280;25631;51.516;-0.470;2023-03-14T07:04:32;99576.96;;;3.01;36.54
39954;BME280;25631;51.516;-0.470;2023-03-14T07:07:09;99581.69;;;2.74;36.59
39954;BME280;25631;51.516;-0.470;2023-03-14T07:09:45;99587.47;;;2.44;37.14
39954;BME280;25631;51.516;-0.470;2023-03-14T07:12:23;99604.01;;;2.65;37.30
39954;BME280;25631;51.516;-0.470;2023-03-14T07:14:59;99619.99;;;2.68;38.02
39954;BME280;25631;51.516;-0.470;2023-03-14T07:17:36;99640.63;;;1.94;38.81
39954;BME280;25631;51.516;-0.470;2023-03-14T07:20:13;99644.46;;;2.65;38.74
39954;BME280;25631;51.516;-0.470;2023-03-14T07:22:50;99664.61;;;2.83;38.61
39954;BME280;25631;51.516;-0.470;2023-03-14T07:25:27;99671.94;;;2.57;38.94
39954;BME280;25631;51.516;-0.470;2023-03-14T07:28:03;99683.90;;;2.06;39.91
39954;BME280;25631;51.516;-0.470;2023-03-14T07:30:40;99689.95;;;2.62;40.01
39954;BME280;25631;51.516;-0.470;2023-03-14T07:33:16;99696.76;;;2.61;40.25
39954;BME280;25631;51.516;-0.470;2023-03-14T07:35:53;99709.67;;;2.21;40.58
39954;BME280;25631;51.516;-0.470;2023-03-14T07:38:30;99717.22;;;2.64;40.92
39954;BME280;25631;51.516;-0.470;2023-03-14T07:41:07;99725.27;;;1.96;41.74
39954;BME280;25631;51.516;-0.470;2023-03-14T07:43:44;99735.12;;;2.64;41.74
39954;BME280;25631;51.516;-0.470;2023-03-14T07:46:21;99749.96;;;2.46;41.52
39954;BME280;25631;51.516;-0.470;2023-03-14T07:48:57;99748.53;;;2.87;41.60
39954;BME280;25631;51.516;-0.470;2023-03-14T07:51:34;99755.92;;;2.72;42.08
39954;BME280;25631;51.516;-0.470;2023-03-14T07:54:10;99761.93;;;2.77;41.95
39954;BME280;25631;51.516;-0.470;2023-03-14T07:56:47;99773.92;;;2.84;42.14
39954;BME280;25631;51.516;-0.470;2023-03-14T07:59:23;99785.99;;;2.97;42.05
39954;BME280;25631;51.516;-0.470;2023-03-14T08:02:00;99798.14;;;2.85;42.21
39954;BME280;25631;51.516;-0.470;2023-03-14T08:04:37;99810.65;;;2.46;42.70
39954;BME280;25631;51.516;-0.470;2023-03-14T08:07:13;99816.07;;;2.68;42.33
39954;BME280;25631;51.516;-0.470;2023-03-14T08:09:50;99827.66;;;3.05;42.28
39954;BME280;25631;51.516;-0.470;2023-03-14T08:12:26;99837.37;;;2.88;42.18
39954;BME280;25631;51.516;-0.470;2023-03-14T08:15:03;99845.77;;;2.95;42.43
39954;BME280;25631;51.516;-0.470;2023-03-14T08:17:40;99852.61;;;2.97;42.27
39954;BME280;25631;51.516;-0.470;2023-03-14T08:20:17;99857.91;;;3.06;42.04
39954;BME280;25631;51.516;-0.470;2023-03-14T08:22:56;99870.23;;;3.02;42.15
39954;BME280;25631;51.516;-0.470;2023-03-14T08:25:32;99886.84;;;3.16;41.99
39954;BME280;25631;51.516;-0.470;2023-03-14T08:28:09;99898.46;;;2.94;41.78
39954;BME280;25631;51.516;-0.470;2023-03-14T08:30:46;99909.05;;;2.92;41.78
39954;BME280;25631;51.516;-0.470;2023-03-14T08:33:22;99925.47;;;2.77;42.12
39954;BME280;25631;51.516;-0.470;2023-03-14T08:36:00;99936.09;;;2.30;41.85
39954;BME280;25631;51.516;-0.470;2023-03-14T08:38:37;99943.34;;;3.00;41.71
39954;BME280;25631;51.516;-0.470;2023-03-14T08:41:13;99956.17;;;2.77;41.86
39954;BME280;25631;51.516;-0.470;2023-03-14T08:43:50;99967.12;;;3.00;41.83
39954;BME280;25631;51.516;-0.470;2023-03-14T08:46:26;99983.59;;;2.50;41.93
39954;BME280;25631;51.516;-0.470;2023-03-14T08:49:03;99991.42;;;2.39;41.88
39954;BME280;25631;51.516;-0.470;2023-03-14T08:51:40;99997.18;;;2.18;41.88
39954;BME280;25631;51.516;-0.470;2023-03-14T08:54:16;100009.11;;;2.74;41.94
39954;BME280;25631;51.516;-0.470;2023-03-14T08:56:53;100023.84;;;2.27;41.90
39954;BME280;25631;51.516;-0.470;2023-03-14T08:59:30;100032.88;;;2.46;41.48
39954;BME280;25631;51.516;-0.470;2023-03-14T09:02:08;100049.63;;;2.71;41.59
39954;BME280;25631;51.516;-0.470;2023-03-14T09:04:44;100057.99;;;2.82;41.45
39954;BME280;25631;51.516;-0.470;2023-03-14T09:07:21;100061.41;;;2.32;41.54
39954;BME280;25631;51.516;-0.470;2023-03-14T09:09:57;100070.43;;;2.42;41.75
39954;BME280;25631;51.516;-0.470;2023-03-14T09:12:34;100078.59;;;2.56;41.99
39954;BME280;25631;51.516;-0.470;2023-03-14T09:15:11;100086.87;;;2.25;42.26
39954;BME280;25631;51.516;-0.470;2023-03-14T09:17:47;100098.77;;;2.40;42.27
39954;BME280;25631;51.516;-0.470;2023-03-14T09:20:24;100103.87;;;2.84;42.10
39954;BME280;25631;51.516;-0.470;2023-03-14T09:23:01;100113.92;;;2.20;41.92
39954;BME280;25631;51.516;-0.470;2023-03-14T09:25:38;100124.18;;;2.72;42.17
39954;BME280;25631;51.516;-0.470;2023-03-14T09:28:15;100133.41;;;2.35;42.08
39954;BME280;25631;51.516;-0.470;2023-03-14T09:30:51;100143.75;;;2.30;42.19
39954;BME280;25631;51.516;-0.470;2023-03-14T09:33:28;100152.59;;;2.61;42.15
39954;BME280;25631;51.516;-0.470;2023-03-14T09:36:05;100159.14;;;2.71;42.07
39954;BME280;25631;51.516;-0.470;2023-03-14T09:38:42;100168.70;;;2.58;42.25
39954;BME280;25631;51.516;-0.470;2023-03-14T09:41:25;100175.64;;;2.86;42.30
39954;BME280;25631;51.516;-0.470;2023-03-14T09:44:06;100179.55;;;3.02;41.91
39954;BME280;25631;51.516;-0.470;2023-03-14T09:46:48;100190.16;;;2.98;41.81
39954;BME280;25631;51.516;-0.470;2023-03-14T09:49:29;100199.67;;;3.27;41.80
39954;BME280;25631;51.516;-0.470;2023-03-14T09:52:13;100204.67;;;3.14;41.26
39954;BME280;25631;51.516;-0.470;2023-03-14T09:54:52;100210.56;;;3.32;40.70
39954;BME280;25631;51.516;-0.470;2023-03-14T09:57:33;100218.81;;;3.16;39.89
39954;BME280;25631;51.516;-0.470;2023-03-14T10:00:16;100218.69;;;3.18;39.82
39954;BME280;25631;51.516;-0.470;2023-03-14T10:02:55;100222.80;;;3.35;40.06
39954;BME280;25631;51.516;-0.470;2023-03-14T10:05:31;100235.17;;;3.45;40.22
39954;BME280;25631;51.516;-0.470;2023-03-14T10:08:10;100251.05;;;3.72;40.06
39954;BME280;25631;51.516;-0.470;2023-03-14T10:10:47;100259.43;;;3.65;39.55
39954;BME280;25631;51.516;-0.470;2023-03-14T10:13:25;100269.42;;;3.99;39.10
39954;BME280;25631;51.516;-0.470;2023-03-14T10:16:04;100283.95;;;4.06;39.01
39954;BME280;25631;51.516;-0.470;2023-03-14T10:18:44;100289.36;;;4.06;38.75
39954;BME280;25631;51.516;-0.470;2023-03-14T10:21:26;100295.64;;;4.22;38.68
39954;BME280;25631;51.516;-0.470;2023-03-14T10:24:19;100302.55;;;4.08;38.53
39954;BME280;25631;51.516;-0.470;2023-03-14T10:26:58;100308.34;;;4.14;38.06
39954;BME280;25631;51.516;-0.470;2023-03-14T10:29:52;100312.04;;;4.07;37.65
39954;BME280;25631;51.516;-0.470;2023-03-14T10:32:32;100315.44;;;4.38;37.26
39954;BME280;25631;51.516;-0.470;2023-03-14T10:35:20;100323.18;;;4.48;37.41
39954;BME280;25631;51.516;-0.470;2023-03-14T10:37:59;100323.22;;;4.19;36.92
39954;BME280;25631;51.516;-0.470;2023-03-14T10:40:39;100329.97;;;4.58;37.34
39954;BME280;25631;51.516;-0.470;2023-03-14T10:43:18;100329.75;;;4.56;36.78
39954;BME280;25631;51.516;-0.470;2023-03-14T10:45:57;100337.90;;;4.65;37.09
39954;BME280;25631;51.516;-0.470;2023-03-14T10:48:36;100341.11;;;4.66;35.66
39954;BME280;25631;51.516;-0.470;2023-03-14T10:51:19;100352.88;;;4.64;35.41
39954;BME280;25631;51.516;-0.470;2023-03-14T10:54:02;100359.90;;;4.63;35.05
39954;BME280;25631;51.516;-0.470;2023-03-14T10:56:39;100368.87;;;4.78;35.07
39954;BME280;25631;51.516;-0.470;2023-03-14T10:59:16;100374.28;;;4.73;34.36
39954;BME280;25631;51.516;-0.470;2023-03-14T11:01:58;100378.98;;;4.62;34.68
39954;BME280;25631;51.516;-0.470;2023-03-14T11:04:50;100386.91;;;4.94;34.57
39954;BME280;25631;51.516;-0.470;2023-03-14T11:07:36;100397.24;;;5.10;34.78
39954;BME280;25631;51.516;-0.470;2023-03-14T11:10:20;100408.14;;;4.93;34.76
39954;BME280;25631;51.516;-0.470;2023-03-14T11:13:08;100414.79;;;4.85;34.74
39954;BME280;25631;51.516;-0.470;2023-03-14T11:15:57;100417.06;;;4.93;34.35
39954;BME280;25631;51.516;-0.470;2023-03-14T11:19:03;100420.79;;;5.04;34.80
39954;BME280;25631;51.516;-0.470;2023-03-14T11:21:51;100422.03;;;5.29;34.73
39954;BME280;25631;51.516;-0.470;2023-03-14T11:24:41;100428.34;;;5.25;34.74
39954;BME280;25631;51.516;-0.470;2023-03-14T11:27:23;100433.15;;;5.31;34.39
39954;BME280;25631;51.516;-0.470;2023-03-14T11:30:05;100439.45;;;5.17;34.08
39954;BME280;25631;51.516;-0.470;2023-03-14T11:32:56;100439.46;;;5.35;34.48
39954;BME280;25631;51.516;-0.470;2023-03-14T11:35:37;100448.62;;;5.22;34.81
39954;BME280;25631;51.516;-0.470;2023-03-14T11:38:24;100457.35;;;5.52;33.80
39954;BME280;25631;51.516;-0.470;2023-03-14T11:41:05;100460.50;;;5.24;33.10
39954;BME280;25631;51.516;-0.470;2023-03-14T11:43:48;100470.28;;;5.64;33.24
39954;BME280;25631;51.516;-0.470;2023-03-14T11:46:27;100476.64;;;5.66;33.06
39954;BME280;25631;51.516;-0.470;2023-03-14T11:49:11;100484.73;;;5.18;32.39
39954;BME280;25631;51.516;-0.470;2023-03-14T11:51:53;100480.66;;;5.42;32.62
39954;BME280;25631;51.516;-0.470;2023-03-14T11:54:36;100488.08;;;5.52;32.14
39954;BME280;25631;51.516;-0.470;2023-03-14T11:57:18;100498.18;;;4.99;31.97
39954;BME280;25631;51.516;-0.470;2023-03-14T11:59:58;100504.16;;;5.28;31.06
39954;BME280;25631;51.516;-0.470;2023-03-14T12:02:45;100507.07;;;4.86;30.79
39954;BME280;25631;51.516;-0.470;2023-03-14T12:05:33;100517.84;;;4.81;30.31
39954;BME280;25631;51.516;-0.470;2023-03-14T12:08:29;100514.61;;;5.09;30.35
39954;BME280;25631;51.516;-0.470;2023-03-14T12:11:13;100514.31;;;5.05;30.69
39954;BME280;25631;51.516;-0.470;2023-03-14T12:13:53;100527.64;;;5.10;30.14
39954;BME280;25631;51.516;-0.470;2023-03-14T12:16:36;100537.45;;;4.72;30.93
39954;BME280;25631;51.516;-0.470;2023-03-14T12:19:27;100533.99;;;4.80;31.70
39954;BME280;25631;51.516;-0.470;2023-03-14T12:22:13;100530.41;;;5.27;31.59
39954;BME280;25631;51.516;-0.470;2023-03-14T12:24:59;100524.14;;;5.71;31.49
39954;BME280;25631;51.516;-0.470;2023-03-14T12:27:48;100533.77;;;5.56;30.13
39954;BME280;25631;51.516;-0.470;2023-03-14T12:30:27;100534.42;;;5.56;29.90
39954;BME280;25631;51.516;-0.470;2023-03-14T12:33:36;100537.69;;;5.50;29.81
39954;BME280;25631;51.516;-0.470;2023-03-14T12:36:51;100538.03;;;5.50;30.20
39954;BME280;25631;51.516;-0.470;2023-03-14T12:39:38;100542.01;;;5.72;29.75
39954;BME280;25631;51.516;-0.470;2023-03-14T12:42:22;100539.68;;;5.82;30.14
39954;BME280;25631;51.516;-0.470;2023-03-14T12:45:22;100537.25;;;6.11;29.01
39954;BME280;25631;51.516;-0.470;2023-03-14T12:48:06;100542.53;;;6.31;29.22
39954;BME280;25631;51.516;-0.470;2023-03-14T12:50:45;100544.48;;;6.15;28.46
39954;BME280;25631;51.516;-0.470;2023-03-14T12:53:42;100557.32;;;6.37;28.82
39954;BME280;25631;51.516;-0.470;2023-03-14T12:56:25;100549.78;;;6.24;28.90
39954;BME280;25631;51.516;-0.470;2023-03-14T12:59:18;100546.42;;;6.08;29.18
39954;BME280;25631;51.516;-0.470;2023-03-14T13:02:13;100552.83;;;6.30;29.43
39954;BME280;25631;51.516;-0.470;2023-03-14T13:05:02;100546.28;;;6.32;30.24
39954;BME280;25631;51.516;-0.470;2023-03-14T13:08:11;100552.81;;;6.52;28.70
39954;BME280;25631;51.516;-0.470;2023-03-14T13:10:49;100554.52;;;6.69;28.90
39954;BME280;25631;51.516;-0.470;2023-03-14T13:13:27;100558.48;;;6.73;27.71
39954;BME280;25631;51.516;-0.470;2023-03-14T13:16:04;100571.56;;;6.67;27.41
39954;BME280;25631;51.516;-0.470;2023-03-14T13:18:42;100567.72;;;6.67;27.08
39954;BME280;25631;51.516;-0.470;2023-03-14T13:21:21;100570.40;;;7.03;27.03
39954;BME280;25631;51.516;-0.470;2023-03-14T13:24:00;100576.01;;;6.72;27.30
39954;BME280;25631;51.516;-0.470;2023-03-14T13:26:39;100568.68;;;7.02;27.55
39954;BME280;25631;51.516;-0.470;2023-03-14T13:29:18;100568.15;;;6.80;26.28
39954;BME280;25631;51.516;-0.470;2023-03-14T13:31:56;100569.36;;;6.89;27.05
39954;BME280;25631;51.516;-0.470;2023-03-14T13:34:34;100571.74;;;7.33;27.51
39954;BME280;25631;51.516;-0.470;2023-03-14T13:37:16;100581.01;;;7.07;27.70
39954;BME280;25631;51.516;-0.470;2023-03-14T13:39:54;100586.61;;;7.53;27.86
39954;BME280;25631;51.516;-0.470;2023-03-14T13:42:31;100589.85;;;7.59;26.71
39954;BME280;25631;51.516;-0.470;2023-03-14T13:45:13;100600.17;;;7.78;26.43
39954;BME280;25631;51.516;-0.470;2023-03-14T13:47:51;100604.38;;;7.50;26.68
39954;BME280;25631;51.516;-0.470;2023-03-14T13:50:28;100604.07;;;7.86;26.23
39954;BME280;25631;51.516;-0.470;2023-03-14T13:53:04;100605.04;;;7.60;26.12
39954;BME280;25631;51.516;-0.470;2023-03-14T13:55:41;100604.56;;;7.90;25.49
39954;BME280;25631;51.516;-0.470;2023-03-14T13:58:24;100602.88;;;7.90;25.89